Terminal Aerodrome Forecast
Issued by NWS

Home | Current Version | Previous Version | Text Only | Print | Product List | Glossary On
Versions: 1 2 3 4 5 6 7 8 9 10 11 12
182
FTUS46 KLOX 112349
TAFLGB
TAF
KLGB 112349Z 1200/1224 17006KT P6SM SCT250
     FM120100 28008KT P6SM SCT250
     FM120600 VRB03KT 6SM BR BCFG SCT001 BKN250
     FM121400 01005KT P6SM BKN250
     FM122100 20006KT P6SM BKN250=

USA.gov is the U.S. government's official web portal to all federal, state and local government web resources and services.